Time;durP1;ratioP1;P1;durP2;ratioP2;P2;SDS_P1;SDS_P2;PMS_P1;PMS_P2;Temp;Humidity;BMP_temperature;BMP_pressure;BME280_temperature;BME280_humidity;BME280_pressure;Samples;Min_cycle;Max_cycle;Signal;HPM_P1;HPM_P2
2022/08/07 00:01:58;;;;;;;1.35;0.70;;;14.60;82.10;;;;;;4996058;28;20402;-94
2022/08/07 00:04:24;;;;;;;1.75;0.77;;;14.50;82.40;;;;;;5009664;28;20032;-94
2022/08/07 00:06:51;;;;;;;2.20;0.90;;;14.50;82.60;;;;;;5009193;28;20470;-94
2022/08/07 00:09:18;;;;;;;4.90;0.90;;;14.50;82.80;;;;;;5023103;28;20018;-95
2022/08/07 00:11:44;;;;;;;4.40;0.80;;;14.50;83.00;;;;;;5018909;28;20029;-95
2022/08/07 00:14:10;;;;;;;3.63;1.95;;;14.50;83.20;;;;;;5020825;28;20029;-94
2022/08/07 00:16:35;;;;;;;1.48;0.77;;;14.40;83.50;;;;;;5007512;28;20057;-95
2022/08/07 00:19:01;;;;;;;2.90;0.85;;;14.40;83.60;;;;;;5020493;28;20033;-94
2022/08/07 00:21:27;;;;;;;1.83;0.98;;;14.40;83.80;;;;;;5019182;28;20025;-93
2022/08/07 00:23:52;;;;;;;0.88;0.70;;;14.40;84.10;;;;;;5020659;28;20030;-94
2022/08/07 00:26:18;;;;;;;3.17;1.05;;;14.30;84.20;;;;;;5011201;28;20078;-95
2022/08/07 00:28:44;;;;;;;2.08;0.88;;;14.30;84.40;;;;;;5004799;28;20025;-95
2022/08/07 00:31:10;;;;;;;0.70;0.70;;;14.20;84.80;;;;;;5021208;28;20539;-94
2022/08/07 00:33:38;;;;;;;2.47;0.80;;;14.20;85.10;;;;;;5015879;28;20040;-95
2022/08/07 00:36:06;;;;;;;2.55;0.80;;;14.10;85.50;;;;;;5021988;28;20092;-95
2022/08/07 00:38:32;;;;;;;7.43;1.02;;;14.10;85.50;;;;;;5017684;28;20034;-94
2022/08/07 00:40:59;;;;;;;2.40;1.50;;;14.10;85.90;;;;;;5035028;28;20030;-94
2022/08/07 00:43:25;;;;;;;5.20;1.05;;;14.10;86.10;;;;;;5022268;28;20388;-95
2022/08/07 00:45:51;;;;;;;4.38;1.10;;;14.00;86.50;;;;;;5014570;28;20049;-95
2022/08/07 00:48:17;;;;;;;3.38;0.90;;;13.90;86.70;;;;;;5018374;28;20057;-94
2022/08/07 00:50:43;;;;;;;5.50;1.52;;;14.00;87.10;;;;;;5004845;28;20072;-95
2022/08/07 00:53:09;;;;;;;2.88;0.80;;;14.00;87.40;;;;;;5024620;28;20061;-92
2022/08/07 00:55:35;;;;;;;5.28;1.00;;;14.00;87.60;;;;;;5014997;28;20050;-94
2022/08/07 00:58:02;;;;;;;2.55;0.88;;;13.90;87.70;;;;;;5019572;28;20048;-94
2022/08/07 01:00:27;;;;;;;4.57;1.17;;;13.90;88.10;;;;;;5015872;28;20033;-94
2022/08/07 01:02:53;;;;;;;4.28;1.30;;;13.90;88.30;;;;;;5016735;28;20025;-95
2022/08/07 01:05:20;;;;;;;4.57;0.95;;;13.80;88.40;;;;;;5023000;28;20080;-94
2022/08/07 01:07:47;;;;;;;2.45;0.80;;;13.80;89.10;;;;;;5030013;28;20072;-95
2022/08/07 01:10:16;;;;;;;3.25;1.35;;;13.70;89.30;;;;;;5034961;28;20561;-95
2022/08/07 01:12:42;;;;;;;1.85;0.70;;;13.80;89.50;;;;;;5017581;28;20076;-94
2022/08/07 01:15:09;;;;;;;1.48;0.90;;;13.80;90.00;;;;;;5011015;28;20100;-95
2022/08/07 01:17:39;;;;;;;1.40;0.75;;;13.80;90.00;;;;;;5024760;28;20033;-94
2022/08/07 01:20:08;;;;;;;0.98;0.85;;;13.80;90.00;;;;;;5020219;28;20051;-94
2022/08/07 01:22:36;;;;;;;6.30;1.02;;;13.80;90.00;;;;;;5022788;28;20105;-95
2022/08/07 01:25:03;;;;;;;1.77;0.98;;;13.80;90.10;;;;;;5032478;28;20093;-94
2022/08/07 01:27:29;;;;;;;2.08;1.40;;;13.80;90.20;;;;;;5025337;28;20083;-95
2022/08/07 01:29:55;;;;;;;1.50;0.77;;;13.80;90.30;;;;;;5020799;28;20030;-95
2022/08/07 01:32:22;;;;;;;2.30;0.75;;;13.80;90.30;;;;;;5032449;28;20021;-94
2022/08/07 01:34:53;;;;;;;2.83;0.98;;;13.80;90.40;;;;;;5004645;28;20049;-94
2022/08/07 01:37:20;;;;;;;3.80;0.90;;;13.70;90.50;;;;;;5026170;28;20083;-95
2022/08/07 01:39:51;;;;;;;1.58;0.93;;;13.80;90.70;;;;;;5022691;28;20018;-95
2022/08/07 01:42:36;;;;;;;4.32;1.10;;;13.80;90.70;;;;;;5034231;28;20026;-95
2022/08/07 01:45:20;;;;;;;4.25;0.80;;;13.70;90.80;;;;;;5019425;28;20034;-95
2022/08/07 01:47:53;;;;;;;2.17;0.80;;;13.70;90.90;;;;;;5033515;28;20041;-94
2022/08/07 01:50:22;;;;;;;6.55;1.38;;;13.70;91.00;;;;;;5026998;28;20045;-95
2022/08/07 01:52:59;;;;;;;2.25;1.25;;;13.80;91.10;;;;;;5034882;28;20113;-95
2022/08/07 01:55:36;;;;;;;3.15;1.33;;;13.90;91.00;;;;;;5012123;28;20056;-92
2022/08/07 01:58:09;;;;;;;3.13;1.50;;;13.90;91.00;;;;;;5028691;28;20022;-95
2022/08/07 02:00:37;;;;;;;3.15;1.50;;;13.90;91.00;;;;;;5016298;28;20521;-94
2022/08/07 02:03:10;;;;;;;7.15;1.45;;;13.90;90.90;;;;;;5025840;28;20017;-94
2022/08/07 02:05:56;;;;;;;3.28;1.50;;;14.00;91.00;;;;;;5024793;28;20033;-94
2022/08/07 02:08:26;;;;;;;2.03;1.27;;;13.90;91.10;;;;;;5020902;28;20036;-95
2022/08/07 02:10:55;;;;;;;2.83;1.00;;;14.00;91.10;;;;;;5029106;28;20049;-95
2022/08/07 02:13:26;;;;;;;2.65;1.00;;;13.90;91.30;;;;;;5022263;28;20034;-94
2022/08/07 02:15:55;;;;;;;3.60;0.85;;;13.90;91.30;;;;;;5021450;28;20033;-95
2022/08/07 02:18:28;;;;;;;1.55;0.82;;;13.90;91.60;;;;;;5032128;28;20022;-95
2022/08/07 02:20:58;;;;;;;6.03;0.93;;;13.80;91.60;;;;;;5004354;28;20104;-94
2022/08/07 02:23:25;;;;;;;5.82;1.02;;;13.90;91.60;;;;;;5022252;28;20034;-94
2022/08/07 02:25:54;;;;;;;11.27;2.80;;;13.90;91.60;;;;;;5026588;28;20030;-94
2022/08/07 02:28:21;;;;;;;3.78;0.90;;;13.90;91.70;;;;;;5013948;28;20032;-94
2022/08/07 02:30:49;;;;;;;2.55;0.80;;;13.90;91.90;;;;;;5020063;28;20423;-96
2022/08/07 02:33:18;;;;;;;3.00;1.00;;;13.80;91.90;;;;;;5020472;28;20037;-94
2022/08/07 02:35:47;;;;;;;1.00;0.73;;;13.70;92.20;;;;;;5022638;28;20479;-94
2022/08/07 02:38:15;;;;;;;1.30;0.60;;;13.70;92.40;;;;;;5021074;28;20026;-94
2022/08/07 02:40:43;;;;;;;0.95;0.80;;;13.60;92.50;;;;;;5028435;28;20029;-94
2022/08/07 02:43:10;;;;;;;2.00;1.00;;;13.60;92.80;;;;;;5021145;28;20022;-95
2022/08/07 02:45:39;;;;;;;1.23;0.70;;;13.60;92.80;;;;;;5026785;28;20058;-95
2022/08/07 02:48:05;;;;;;;2.22;0.73;;;13.60;93.00;;;;;;5009046;28;20022;-94
2022/08/07 02:50:38;;;;;;;1.60;0.80;;;13.60;93.10;;;;;;5017985;28;20441;-95
2022/08/07 02:53:14;;;;;;;3.25;0.90;;;13.70;93.10;;;;;;5033632;28;20038;-94
2022/08/07 02:55:45;;;;;;;8.80;1.10;;;13.60;93.30;;;;;;5013955;28;20477;-94
2022/08/07 02:58:14;;;;;;;1.83;1.00;;;13.70;93.30;;;;;;5035138;28;20026;-95
2022/08/07 03:00:43;;;;;;;1.13;0.70;;;13.60;93.30;;;;;;5021897;28;20088;-95
2022/08/07 03:03:11;;;;;;;1.30;0.65;;;13.70;93.50;;;;;;5028592;28;20026;-93
2022/08/07 03:05:42;;;;;;;1.45;0.63;;;13.60;93.60;;;;;;5015629;28;20446;-96
2022/08/07 03:08:09;;;;;;;3.25;0.90;;;13.60;93.90;;;;;;5021631;28;20057;-95
2022/08/07 03:11:11;;;;;;;2.63;0.93;;;13.50;94.00;;;;;;5022399;28;20032;-95
2022/08/07 03:13:41;;;;;;;1.77;0.70;;;13.60;94.20;;;;;;5022190;28;20053;-95
2022/08/07 03:16:10;;;;;;;2.08;0.80;;;13.60;94.30;;;;;;5029071;28;20193;-95
2022/08/07 03:18:38;;;;;;;1.42;0.77;;;13.60;94.40;;;;;;5030056;28;20076;-95
2022/08/07 03:21:07;;;;;;;5.60;1.23;;;13.60;94.50;;;;;;5014634;28;20244;-95
2022/08/07 03:23:34;;;;;;;1.77;0.77;;;13.50;94.70;;;;;;5027382;28;20029;-96
2022/08/07 03:26:02;;;;;;;1.63;0.60;;;13.50;95.00;;;;;;5024638;28;20029;-93
2022/08/07 03:28:34;;;;;;;2.58;0.90;;;13.50;95.10;;;;;;5024488;28;20034;-95
2022/08/07 03:31:20;;;;;;;0.80;0.73;;;13.40;95.70;;;;;;5013184;28;20041;-94
2022/08/07 03:34:01;;;;;;;1.50;0.80;;;13.50;95.50;;;;;;5038075;28;20037;-95
2022/08/07 03:36:31;;;;;;;1.77;1.10;;;13.50;95.70;;;;;;5015445;28;20022;-94
2022/08/07 03:39:08;;;;;;;2.33;0.85;;;13.40;95.80;;;;;;5026209;28;20033;-95
2022/08/07 03:41:37;;;;;;;1.50;0.80;;;13.40;96.10;;;;;;5024445;28;20108;-94
2022/08/07 03:44:03;;;;;;;2.97;1.00;;;13.40;96.30;;;;;;5020806;28;20394;-94
2022/08/07 03:46:33;;;;;;;3.50;0.90;;;13.30;96.60;;;;;;5028632;28;20025;-95
2022/08/07 03:49:00;;;;;;;1.55;0.90;;;13.30;96.60;;;;;;5019499;28;20389;-94
2022/08/07 03:51:32;;;;;;;1.42;0.80;;;13.30;96.90;;;;;;5022671;28;20018;-95
2022/08/07 03:53:57;;;;;;;1.30;1.20;;;13.30;97.00;;;;;;5037568;28;20030;-95
2022/08/07 03:56:25;;;;;;;0.60;0.60;;;13.20;97.50;;;;;;5025898;28;20044;-96
2022/08/07 03:58:52;;;;;;;3.08;0.95;;;13.30;97.40;;;;;;5025819;28;20396;-95
2022/08/07 04:01:20;;;;;;;6.72;1.27;;;13.30;97.60;;;;;;5033640;28;20024;-93
2022/08/07 04:03:49;;;;;;;5.68;1.00;;;13.20;98.00;;;;;;5028395;28;20086;-95
2022/08/07 04:06:16;;;;;;;3.22;1.00;;;13.20;98.40;;;;;;5027296;28;20520;-87
2022/08/07 04:08:42;;;;;;;3.17;0.85;;;13.20;98.40;;;;;;5003100;28;20121;-89
2022/08/07 04:11:09;;;;;;;3.63;0.95;;;13.30;98.60;;;;;;5024544;28;20378;-89
2022/08/07 04:13:38;;;;;;;5.45;1.05;;;13.30;98.90;;;;;;5017514;28;20026;-88
2022/08/07 04:16:04;;;;;;;1.52;0.90;;;13.30;98.90;;;;;;5002949;28;20033;-87
2022/08/07 04:18:31;;;;;;;1.98;0.90;;;13.40;99.00;;;;;;5013227;28;20021;-89
2022/08/07 04:20:57;;;;;;;1.10;0.90;;;13.40;98.90;;;;;;5002764;28;20034;-88
2022/08/07 04:23:24;;;;;;;4.78;1.00;;;13.40;99.00;;;;;;5027852;28;20473;-88
2022/08/07 04:25:51;;;;;;;2.97;1.10;;;13.40;99.20;;;;;;5007762;28;20032;-89
2022/08/07 04:28:18;;;;;;;2.45;0.90;;;13.40;99.40;;;;;;5015304;28;20030;-89
2022/08/07 04:30:49;;;;;;;2.40;1.00;;;13.40;99.60;;;;;;4996809;28;20096;-90
2022/08/07 04:33:24;;;;;;;4.95;0.90;;;13.40;99.90;;;;;;5007093;28;20030;-89
2022/08/07 04:35:50;;;;;;;3.50;0.82;;;13.50;99.90;;;;;;5022607;28;20030;-87
2022/08/07 04:38:18;;;;;;;8.65;1.10;;;13.50;99.90;;;;;;5014180;28;20030;-90
2022/08/07 04:40:46;;;;;;;2.38;0.90;;;13.50;99.90;;;;;;5013350;28;20029;-88
2022/08/07 04:43:20;;;;;;;1.10;0.88;;;13.50;99.90;;;;;;5023790;28;20417;-88
2022/08/07 04:46:24;;;;;;;2.38;0.80;;;13.60;99.90;;;;;;5019340;28;20637;-87
2022/08/07 04:48:59;;;;;;;0.98;0.75;;;13.60;99.90;;;;;;4975230;28;20528;-90
2022/08/07 04:51:53;;;;;;;6.35;1.10;;;13.60;99.80;;;;;;5019291;28;20025;-88
2022/08/07 04:54:30;;;;;;;1.83;0.82;;;13.60;99.80;;;;;;5011712;28;20021;-88
2022/08/07 04:57:02;;;;;;;3.47;1.02;;;13.70;99.90;;;;;;5030724;28;20033;-87
2022/08/07 04:59:42;;;;;;;4.50;0.95;;;13.70;99.90;;;;;;5014375;28;20098;-89
2022/08/07 05:02:19;;;;;;;1.75;0.82;;;13.80;99.90;;;;;;5011713;28;20052;-89
2022/08/07 05:04:54;;;;;;;1.52;0.70;;;13.80;99.90;;;;;;5011204;28;20084;-88
2022/08/07 05:07:43;;;;;;;0.82;0.73;;;13.80;99.90;;;;;;5030395;28;20087;-87
2022/08/07 05:10:28;;;;;;;1.83;0.90;;;13.80;99.90;;;;;;5017455;28;20041;-88
2022/08/07 05:16:46;;;;;;;3.05;0.82;;;13.90;99.90;;;;;;5027703;28;20037;-87
2022/08/07 05:19:19;;;;;;;2.40;0.90;;;14.00;99.90;;;;;;5010269;28;20103;-89
2022/08/07 05:21:51;;;;;;;2.83;1.10;;;14.00;99.90;;;;;;5009524;28;20057;-88
2022/08/07 05:24:20;;;;;;;0.88;0.80;;;14.10;99.90;;;;;;5005107;28;20028;-88
2022/08/07 05:26:52;;;;;;;1.92;0.70;;;14.10;99.90;;;;;;5003077;28;20029;-90
2022/08/07 05:29:20;;;;;;;2.25;0.90;;;14.20;99.90;;;;;;5001120;28;20026;-90
2022/08/07 05:31:48;;;;;;;3.83;1.35;;;14.20;99.90;;;;;;5025690;28;20473;-91
2022/08/07 05:34:18;;;;;;;1.70;0.80;;;14.30;99.90;;;;;;5009426;28;20025;-88
2022/08/07 05:36:48;;;;;;;2.03;0.90;;;14.40;99.90;;;;;;5021848;28;20041;-91
2022/08/07 05:39:23;;;;;;;1.10;1.00;;;14.40;99.90;;;;;;5024398;28;20093;-90
2022/08/07 05:41:51;;;;;;;4.53;1.50;;;14.60;99.90;;;;;;5014101;28;20026;-90
2022/08/07 05:44:19;;;;;;;5.00;1.27;;;14.60;99.90;;;;;;5015967;28;20036;-87
2022/08/07 05:46:50;;;;;;;2.65;0.80;;;14.70;99.90;;;;;;5008547;28;20041;-88
2022/08/07 05:49:20;;;;;;;4.72;1.00;;;14.70;99.60;;;;;;5010417;28;20033;-88
2022/08/07 05:51:47;;;;;;;3.83;1.20;;;14.70;99.80;;;;;;5011060;28;20472;-88
2022/08/07 05:54:17;;;;;;;3.30;1.05;;;14.70;99.80;;;;;;5012755;28;20048;-88
2022/08/07 05:56:45;;;;;;;2.05;0.95;;;14.70;99.90;;;;;;5005491;28;20032;-88
2022/08/07 05:59:17;;;;;;;3.42;1.25;;;14.80;99.90;;;;;;5022626;28;20071;-89
2022/08/07 06:01:47;;;;;;;4.65;1.10;;;14.90;99.90;;;;;;5010812;28;20068;-87
2022/08/07 06:04:15;;;;;;;2.08;1.00;;;15.00;99.90;;;;;;5011971;28;20026;-88
2022/08/07 06:06:42;;;;;;;2.33;1.30;;;15.00;99.90;;;;;;5012534;28;20412;-88
2022/08/07 06:09:09;;;;;;;1.20;1.00;;;15.10;99.90;;;;;;5028973;28;20017;-87
2022/08/07 06:11:40;;;;;;;2.85;1.10;;;15.20;99.90;;;;;;5016981;28;20109;-88
2022/08/07 06:14:07;;;;;;;3.25;1.30;;;15.30;99.90;;;;;;5021707;28;20033;-88
2022/08/07 06:16:37;;;;;;;2.50;1.23;;;15.30;99.90;;;;;;5012455;28;20026;-87
2022/08/07 06:19:05;;;;;;;2.78;1.38;;;15.40;99.90;;;;;;5024880;28;20030;-88
2022/08/07 06:21:34;;;;;;;3.35;1.40;;;15.40;99.90;;;;;;5012796;28;20026;-88
2022/08/07 06:24:00;;;;;;;5.43;1.48;;;15.50;99.90;;;;;;5010152;28;20113;-88
2022/08/07 06:26:27;;;;;;;2.65;1.73;;;15.60;99.90;;;;;;5004330;28;20033;-87
2022/08/07 06:28:58;;;;;;;2.28;1.27;;;15.70;99.90;;;;;;5013103;28;20074;-88
2022/08/07 06:31:25;;;;;;;2.65;1.60;;;15.70;99.90;;;;;;5019741;28;20060;-88
2022/08/07 06:33:53;;;;;;;1.95;1.52;;;15.90;99.90;;;;;;5017172;28;20835;-88
2022/08/07 06:36:19;;;;;;;2.67;1.38;;;16.00;99.90;;;;;;5016109;28;20033;-88
2022/08/07 06:38:53;;;;;;;5.45;1.83;;;16.00;99.90;;;;;;5030798;28;20129;-88
2022/08/07 06:41:34;;;;;;;7.55;1.50;;;16.10;99.90;;;;;;5016654;28;20804;-88
2022/08/07 06:44:02;;;;;;;4.43;1.30;;;16.20;99.90;;;;;;5019351;28;20037;-87
2022/08/07 06:46:32;;;;;;;3.65;1.88;;;16.30;99.90;;;;;;5016992;28;20037;-88
2022/08/07 06:48:59;;;;;;;4.10;2.38;;;16.40;99.90;;;;;;5007527;28;20109;-87
2022/08/07 06:51:32;;;;;;;3.97;2.22;;;16.40;99.90;;;;;;5018462;28;20507;-89
2022/08/07 06:54:02;;;;;;;2.92;1.95;;;16.60;99.90;;;;;;5020776;28;20029;-88
2022/08/07 06:56:39;;;;;;;;;;;16.60;99.90;;;;;;5019049;28;20025;-89
2022/08/07 06:59:12;;;;;;;;;;;16.70;99.90;;;;;;5033503;28;20003;-87
2022/08/07 07:01:43;;;;;;;;;;;16.80;99.90;;;;;;5014561;28;19909;-88
2022/08/07 07:04:10;;;;;;;4.72;1.80;;;16.90;99.90;;;;;;5030358;28;20039;-87
2022/08/07 07:06:39;;;;;;;3.08;2.28;;;16.90;99.90;;;;;;5030442;28;20020;-87
2022/08/07 07:09:37;;;;;;;3.35;2.03;;;17.00;99.90;;;;;;5019457;28;20033;-88
2022/08/07 07:12:05;;;;;;;11.23;2.75;;;17.10;99.90;;;;;;5005841;28;20109;-87
2022/08/07 07:14:52;;;;;;;2.45;2.00;;;17.20;99.90;;;;;;5007217;28;20022;-88
2022/08/07 07:17:33;;;;;;;3.35;2.47;;;17.30;99.90;;;;;;5023030;28;20026;-88
2022/08/07 07:20:15;;;;;;;2.70;2.10;;;17.40;99.90;;;;;;5021381;28;20048;-87
2022/08/07 07:22:42;;;;;;;4.30;2.10;;;17.50;99.90;;;;;;5023996;28;20543;-87
2022/08/07 07:25:10;;;;;;;9.65;2.30;;;17.60;99.90;;;;;;5025623;28;20020;-88
2022/08/07 07:27:43;;;;;;;3.53;2.10;;;17.70;99.90;;;;;;5031291;28;20084;-88
2022/08/07 07:30:11;;;;;;;2.25;1.92;;;17.80;99.90;;;;;;5029943;28;20032;-89
2022/08/07 07:32:39;;;;;;;4.00;1.92;;;17.80;99.90;;;;;;5017800;28;20037;-89
2022/08/07 07:35:08;;;;;;;1.80;1.52;;;17.90;99.90;;;;;;5026776;28;20029;-88
2022/08/07 07:37:36;;;;;;;3.63;1.65;;;17.80;99.90;;;;;;5022701;28;20028;-88
2022/08/07 07:40:05;;;;;;;4.07;1.50;;;17.90;99.90;;;;;;5028060;28;20025;-88
2022/08/07 07:42:32;;;;;;;3.42;1.50;;;18.00;99.90;;;;;;5028761;28;20022;-88
2022/08/07 07:45:04;;;;;;;1.98;1.50;;;18.20;99.90;;;;;;5018707;28;20038;-88
2022/08/07 07:47:31;;;;;;;3.88;1.02;;;18.20;99.90;;;;;;5005248;28;20051;-89
2022/08/07 07:49:58;;;;;;;2.83;1.40;;;18.40;99.70;;;;;;5033535;28;20079;-88
2022/08/07 07:52:25;;;;;;;3.05;1.48;;;18.50;98.30;;;;;;5014373;28;20061;-89
2022/08/07 07:54:53;;;;;;;2.33;1.00;;;18.60;98.20;;;;;;5029469;28;20026;-88
2022/08/07 07:57:22;;;;;;;1.90;1.08;;;18.70;97.70;;;;;;5015527;28;20493;-88
2022/08/07 07:59:50;;;;;;;1.55;1.20;;;18.70;97.30;;;;;;5020146;28;20030;-89
2022/08/07 08:02:18;;;;;;;1.70;1.13;;;18.80;97.00;;;;;;5028667;28;20045;-88
2022/08/07 08:04:45;;;;;;;1.17;0.80;;;18.90;97.00;;;;;;5025727;28;20179;-90
2022/08/07 08:07:58;;;;;;;3.83;1.00;;;19.10;96.20;;;;;;5031171;28;20037;-88
2022/08/07 08:10:23;;;;;;;2.45;1.02;;;19.10;95.30;;;;;;5015282;28;20117;-88
2022/08/07 08:12:50;;;;;;;2.50;0.95;;;19.20;94.90;;;;;;5024991;28;20042;-88
2022/08/07 08:15:16;;;;;;;1.38;1.00;;;19.30;94.90;;;;;;5015386;28;20052;-87
2022/08/07 08:17:43;;;;;;;0.88;0.88;;;19.30;94.30;;;;;;5009716;28;20026;-88
2022/08/07 08:20:10;;;;;;;2.17;0.90;;;19.40;94.40;;;;;;5009011;28;20034;-90
2022/08/07 08:28:24;;;;;;;2.75;1.00;;;19.70;93.00;;;;;;5027328;28;20079;-90
2022/08/07 08:30:56;;;;;;;1.63;0.80;;;20.60;91.50;;;;;;5006898;28;20025;-88
2022/08/07 08:33:26;;;;;;;6.47;1.08;;;21.90;89.00;;;;;;5024786;28;20462;-89
2022/08/07 08:35:54;;;;;;;1.15;0.80;;;23.50;85.60;;;;;;5032800;28;20021;-88
2022/08/07 08:38:24;;;;;;;0.80;0.60;;;24.60;81.20;;;;;;5015382;28;20048;-89
2022/08/07 08:41:20;;;;;;;2.67;1.08;;;24.80;77.00;;;;;;5011599;28;20053;-89
2022/08/07 08:44:12;;;;;;;1.63;0.55;;;25.40;73.70;;;;;;5029131;28;20037;-91
2022/08/07 08:46:51;;;;;;;4.88;0.70;;;25.90;71.20;;;;;;5005638;28;20041;-89
2022/08/07 08:49:54;;;;;;;1.30;0.60;;;26.20;69.20;;;;;;5016826;28;20079;-87
2022/08/07 08:52:49;;;;;;;3.40;0.80;;;26.20;67.80;;;;;;5021776;28;20033;-89
2022/08/07 08:55:31;;;;;;;3.33;1.00;;;26.40;66.30;;;;;;5009283;28;20077;-89
2022/08/07 08:58:12;;;;;;;3.33;1.40;;;26.30;64.50;;;;;;5004307;28;20044;-88
2022/08/07 09:00:49;;;;;;;1.63;0.70;;;27.10;63.80;;;;;;5012758;28;20041;-88
2022/08/07 09:03:25;;;;;;;1.95;0.70;;;27.20;62.70;;;;;;5004294;28;20057;-89
2022/08/07 09:06:15;;;;;;;1.92;0.77;;;27.10;62.40;;;;;;5015591;28;20124;-91
2022/08/07 09:08:49;;;;;;;2.70;0.70;;;26.40;61.80;;;;;;5010763;28;20018;-87
2022/08/07 09:11:30;;;;;;;0.63;0.60;;;26.00;61.60;;;;;;5020268;28;20049;-89
2022/08/07 09:14:05;;;;;;;1.00;0.68;;;27.20;60.40;;;;;;5027848;28;20036;-88
2022/08/07 09:16:45;;;;;;;1.90;0.70;;;28.10;59.60;;;;;;5028926;28;20061;-88
2022/08/07 09:19:34;;;;;;;6.38;0.75;;;28.60;57.90;;;;;;5011113;28;20030;-88
2022/08/07 09:21:59;;;;;;;4.60;0.80;;;28.80;56.70;;;;;;5007505;28;20030;-88
2022/08/07 09:24:48;;;;;;;1.40;0.68;;;28.80;57.00;;;;;;5011066;28;20056;-90
2022/08/07 09:27:44;;;;;;;2.28;0.88;;;29.20;55.80;;;;;;5008089;28;20049;-87
2022/08/07 09:30:12;;;;;;;1.45;0.60;;;28.40;55.70;;;;;;5004043;28;20115;-88
2022/08/07 09:32:57;;;;;;;2.40;0.70;;;28.20;56.20;;;;;;5022941;28;20066;-89
2022/08/07 09:35:57;;;;;;;1.25;0.50;;;28.70;55.70;;;;;;5014444;28;20030;-88
2022/08/07 09:39:18;;;;;;;2.72;0.80;;;27.50;56.50;;;;;;5015120;28;20026;-90
2022/08/07 09:42:29;;;;;;;1.52;0.90;;;28.20;56.10;;;;;;5010918;28;20061;-88
2022/08/07 09:45:14;;;;;;;1.98;0.70;;;28.80;53.00;;;;;;5006132;28;20044;-88
2022/08/07 09:48:13;;;;;;;2.17;0.70;;;28.10;53.30;;;;;;5012929;28;21442;-88
2022/08/07 09:51:15;;;;;;;5.10;0.88;;;27.90;54.40;;;;;;5005641;28;20038;-89
2022/08/07 09:53:43;;;;;;;5.07;0.85;;;28.00;53.90;;;;;;5021162;28;20645;-88
2022/08/07 09:56:36;;;;;;;1.52;0.75;;;27.50;54.60;;;;;;5003656;28;20084;-89
2022/08/07 09:59:26;;;;;;;1.92;0.80;;;27.50;55.00;;;;;;5020047;28;20120;-88
2022/08/07 10:02:18;;;;;;;2.17;1.17;;;26.90;54.70;;;;;;5020727;28;20389;-88
2022/08/07 10:05:22;;;;;;;2.40;0.77;;;26.10;57.30;;;;;;5021822;28;20481;-89
2022/08/07 10:08:04;;;;;;;0.70;0.70;;;25.80;56.80;;;;;;5010769;28;20026;-89
2022/08/07 10:11:02;;;;;;;2.20;0.70;;;25.90;57.10;;;;;;5011737;28;20072;-90
2022/08/07 10:13:46;;;;;;;1.02;0.73;;;25.90;57.50;;;;;;4994750;28;20041;-89
2022/08/07 10:16:34;;;;;;;1.65;1.08;;;26.00;56.00;;;;;;5010472;28;20025;-88
2022/08/07 10:19:15;;;;;;;0.95;0.60;;;26.00;56.10;;;;;;5021696;28;20095;-90
2022/08/07 10:21:59;;;;;;;5.20;0.82;;;25.60;56.00;;;;;;5011572;28;20026;-87
2022/08/07 10:24:31;;;;;;;1.58;0.80;;;25.20;56.90;;;;;;5014957;28;20438;-90
2022/08/07 10:27:24;;;;;;;1.48;0.77;;;24.90;58.00;;;;;;5013070;28;20034;-89
2022/08/07 10:30:05;;;;;;;3.67;0.90;;;25.10;57.80;;;;;;5018643;28;20084;-89
2022/08/07 10:32:52;;;;;;;;;;;25.60;57.20;;;;;;5012283;28;20032;-87
2022/08/07 10:35:48;;;;;;;3.17;0.95;;;26.20;56.00;;;;;;4996959;28;19910;-89
2022/08/07 10:38:42;;;;;;;1.23;0.63;;;26.40;54.40;;;;;;5017327;28;20038;-89
2022/08/07 10:41:17;;;;;;;0.95;0.60;;;26.60;54.60;;;;;;5017537;28;20022;-87
2022/08/07 10:44:06;;;;;;;3.85;0.85;;;26.40;54.30;;;;;;5019277;28;20037;-89
2022/08/07 10:46:41;;;;;;;9.13;0.70;;;27.10;53.90;;;;;;5023458;28;20030;-87
2022/08/07 10:49:22;;;;;;;1.23;0.80;;;27.40;52.80;;;;;;5021510;28;20108;-88
2022/08/07 10:52:02;;;;;;;3.95;0.77;;;27.30;52.30;;;;;;5004271;28;20041;-88
2022/08/07 10:54:54;;;;;;;1.15;0.55;;;27.70;52.90;;;;;;5013623;28;20037;-89
2022/08/07 10:57:46;;;;;;;2.03;0.63;;;27.40;52.70;;;;;;5001568;28;20088;-88
2022/08/07 11:00:53;;;;;;;8.13;0.82;;;27.80;52.70;;;;;;5006394;28;20044;-89
2022/08/07 11:03:31;;;;;;;0.73;0.70;;;28.00;53.40;;;;;;5022973;28;20029;-89
2022/08/07 11:06:49;;;;;;;1.73;0.77;;;27.80;53.00;;;;;;5020326;28;20030;-91
2022/08/07 11:09:23;;;;;;;1.60;0.55;;;28.20;51.30;;;;;;5003751;28;20041;-89
2022/08/07 11:12:03;;;;;;;1.42;0.70;;;27.80;51.50;;;;;;5025844;28;20021;-89
2022/08/07 11:14:40;;;;;;;3.33;0.60;;;27.60;51.40;;;;;;5027758;28;20030;-90
2022/08/07 11:17:11;;;;;;;0.57;0.55;;;27.80;50.60;;;;;;5004960;28;20036;-88
2022/08/07 11:19:56;;;;;;;0.50;0.50;;;27.50;51.20;;;;;;5021910;28;20082;-89
2022/08/07 11:22:28;;;;;;;4.70;0.85;;;27.10;52.70;;;;;;5015268;28;20089;-87
2022/08/07 11:25:12;;;;;;;4.72;0.60;;;27.20;52.00;;;;;;5012508;28;20057;-89
2022/08/07 11:27:44;;;;;;;1.23;0.60;;;27.60;52.10;;;;;;5014971;28;20034;-88
2022/08/07 11:30:19;;;;;;;1.35;0.57;;;27.70;50.90;;;;;;5014106;28;20531;-88
2022/08/07 11:32:45;;;;;;;1.50;0.57;;;27.80;51.50;;;;;;5018228;28;20057;-88
2022/08/07 11:35:17;;;;;;;2.38;0.88;;;27.70;51.50;;;;;;5028101;28;20496;-88
2022/08/07 11:38:08;;;;;;;0.68;0.50;;;27.90;50.50;;;;;;5019464;28;20037;-89
2022/08/07 11:41:04;;;;;;;3.38;0.63;;;28.10;50.60;;;;;;5010783;28;20029;-90
2022/08/07 11:43:37;;;;;;;2.70;0.88;;;28.50;50.30;;;;;;5003436;28;20034;-90
2022/08/07 11:46:21;;;;;;;1.73;0.70;;;28.30;49.60;;;;;;5027854;28;20025;-89
2022/08/07 11:48:56;;;;;;;3.47;0.70;;;28.40;49.30;;;;;;5025981;28;20076;-88
2022/08/07 11:51:45;;;;;;;2.92;0.70;;;28.00;49.00;;;;;;5012202;28;20735;-89
2022/08/07 11:54:16;;;;;;;1.75;0.80;;;27.40;50.00;;;;;;5027261;28;20033;-89
2022/08/07 11:57:17;;;;;;;1.67;0.60;;;27.50;50.10;;;;;;5014205;28;20029;-89
2022/08/07 12:00:14;;;;;;;1.55;0.75;;;27.50;49.20;;;;;;5014807;28;20663;-88
2022/08/07 12:03:15;;;;;;;2.05;0.52;;;27.80;49.40;;;;;;5011767;28;20029;-89
2022/08/07 12:06:01;;;;;;;3.97;0.80;;;28.00;48.70;;;;;;5014349;28;20040;-91
2022/08/07 12:08:36;;;;;;;1.15;0.63;;;27.40;49.10;;;;;;5011328;28;20053;-90
2022/08/07 12:11:25;;;;;;;1.92;0.60;;;27.50;51.10;;;;;;4999450;28;20029;-89
2022/08/07 12:14:02;;;;;;;1.02;0.50;;;27.60;49.10;;;;;;5009770;28;20116;-89
2022/08/07 12:16:39;;;;;;;0.65;0.45;;;27.50;47.60;;;;;;5018362;28;20454;-89
2022/08/07 12:19:32;;;;;;;2.65;1.02;;;27.20;47.80;;;;;;5020627;28;20076;-89
2022/08/07 12:22:36;;;;;;;0.90;0.60;;;26.90;50.30;;;;;;5020136;28;20502;-88
2022/08/07 12:28:08;;;;;;;1.38;0.70;;;27.10;51.00;;;;;;5020263;28;20032;-88
2022/08/07 12:30:39;;;;;;;1.48;0.80;;;26.90;50.10;;;;;;5010390;28;20110;-89
2022/08/07 12:33:11;;;;;;;2.90;0.65;;;26.70;50.60;;;;;;5020841;28;20045;-89
2022/08/07 12:35:40;;;;;;;1.08;0.60;;;26.90;50.70;;;;;;5007738;28;20126;-89
2022/08/07 12:38:07;;;;;;;3.17;0.70;;;27.10;50.40;;;;;;5014346;28;20037;-89
2022/08/07 12:40:35;;;;;;;2.90;0.70;;;27.10;50.10;;;;;;5025210;28;20041;-89
2022/08/07 12:43:05;;;;;;;1.50;0.50;;;27.20;48.20;;;;;;5022607;28;20029;-88
2022/08/07 12:45:40;;;;;;;1.02;0.82;;;27.20;47.80;;;;;;5024294;28;20525;-89
2022/08/07 12:48:43;;;;;;;1.13;0.60;;;27.40;48.80;;;;;;4998097;28;20026;-90
2022/08/07 12:51:32;;;;;;;1.63;0.70;;;27.70;49.80;;;;;;5003216;28;20029;-89
2022/08/07 12:54:33;;;;;;;1.38;0.85;;;28.00;49.50;;;;;;5015852;28;20045;-91
2022/08/07 12:57:00;;;;;;;2.03;0.63;;;28.60;48.90;;;;;;5020905;28;20542;-89
2022/08/07 12:59:30;;;;;;;2.30;0.65;;;29.40;48.60;;;;;;5004179;28;20354;-88
2022/08/07 13:02:16;;;;;;;1.13;0.55;;;29.70;47.60;;;;;;5018098;28;20393;-89
2022/08/07 13:04:57;;;;;;;1.20;0.55;;;29.20;47.30;;;;;;5015611;28;20021;-88
2022/08/07 13:08:00;;;;;;;1.23;0.60;;;29.00;47.20;;;;;;5014291;28;20501;-91
2022/08/07 13:10:45;;;;;;;0.88;0.63;;;29.30;47.20;;;;;;5002591;28;20057;-90
2022/08/07 13:13:22;;;;;;;2.15;0.57;;;29.30;47.40;;;;;;5018151;28;20036;-89
2022/08/07 13:16:04;;;;;;;8.35;0.70;;;29.90;47.20;;;;;;5013375;28;20039;-90
2022/08/07 13:18:35;;;;;;;1.80;0.98;;;30.80;45.70;;;;;;5007433;28;20034;-90
2022/08/07 13:21:11;;;;;;;2.65;0.90;;;31.00;45.90;;;;;;4998384;28;20022;-89
2022/08/07 13:24:06;;;;;;;0.75;0.63;;;30.60;44.60;;;;;;5016593;28;20466;-88
2022/08/07 13:26:39;;;;;;;1.55;0.65;;;29.80;45.90;;;;;;5012396;28;20029;-90
2022/08/07 13:29:15;;;;;;;1.42;0.70;;;29.80;46.90;;;;;;4998476;28;20816;-89
2022/08/07 13:31:57;;;;;;;3.42;0.52;;;30.30;45.40;;;;;;5004611;28;20029;-89
2022/08/07 13:34:29;;;;;;;2.35;0.85;;;30.30;44.00;;;;;;5008157;28;20026;-91
2022/08/07 13:37:22;;;;;;;2.67;0.52;;;30.50;44.00;;;;;;5012359;28;20058;-89
2022/08/07 13:40:01;;;;;;;0.73;0.50;;;30.50;44.40;;;;;;5005027;28;20044;-89
2022/08/07 13:42:29;;;;;;;5.47;0.68;;;30.90;45.30;;;;;;5011852;28;20065;-89